Bill's Weather Station Status


Memory

               total        used        free      shared  buff/cache   available
Mem:         3918876      594448      242156        2772     3082272     3036252
Swap:              0           0           0

Uptime

 20:31:40 up 57 days, 15:27,  0 users,  load average: 0.14, 0.07, 0.01


Temperature Database

meteo table size: 912573 rows

Last 50 temperature measurements:
2026-09-04 20:30:06: Inside: 81.7, Outside: 74.6, Pressure: 29.859, Humidity:  61, Illumination:  0.00
2026-09-04 20:25:06: Inside: 81.7, Outside: 74.9, Pressure: 29.858, Humidity:  61, Illumination:  0.00
2026-09-04 20:20:06: Inside: 81.8, Outside: 75.2, Pressure: 29.860, Humidity:  61, Illumination:  0.00
2026-09-04 20:15:06: Inside: 81.8, Outside: 75.4, Pressure: 29.860, Humidity:  60, Illumination:  0.00
2026-09-04 20:10:05: Inside: 82.0, Outside: 75.8, Pressure: 29.858, Humidity:  60, Illumination:  0.00
2026-09-04 20:05:05: Inside: 82.0, Outside: 76.2, Pressure: 29.859, Humidity:  60, Illumination:  0.00
2026-09-04 20:00:06: Inside: 82.0, Outside: 76.7, Pressure: 29.858, Humidity:  60, Illumination:  0.00
2026-09-04 19:55:06: Inside: 82.0, Outside: 77.1, Pressure: 29.856, Humidity:  59, Illumination:  0.00
2026-09-04 19:50:06: Inside: 82.0, Outside: 77.5, Pressure: 29.853, Humidity:  59, Illumination:  0.00
2026-09-04 19:45:06: Inside: 82.0, Outside: 77.8, Pressure: 29.857, Humidity:  59, Illumination:  0.00
2026-09-04 19:40:05: Inside: 82.0, Outside: 78.0, Pressure: 29.856, Humidity:  59, Illumination:  0.00
2026-09-04 19:35:05: Inside: 82.0, Outside: 78.5, Pressure: 29.858, Humidity:  59, Illumination:  0.00
2026-09-04 19:30:05: Inside: 82.1, Outside: 78.8, Pressure: 29.857, Humidity:  59, Illumination:  1.00
2026-09-04 19:25:05: Inside: 82.1, Outside: 78.9, Pressure: 29.860, Humidity:  59, Illumination:  1.00
2026-09-04 19:20:05: Inside: 82.2, Outside: 79.0, Pressure: 29.858, Humidity:  60, Illumination:  2.00
2026-09-04 19:15:05: Inside: 82.2, Outside: 79.2, Pressure: 29.858, Humidity:  60, Illumination:  3.00
2026-09-04 19:10:05: Inside: 82.3, Outside: 79.5, Pressure: 29.859, Humidity:  60, Illumination:  5.00
2026-09-04 19:05:05: Inside: 82.3, Outside: 79.9, Pressure: 29.861, Humidity:  60, Illumination:  7.00
2026-09-04 19:00:05: Inside: 82.3, Outside: 80.4, Pressure: 29.855, Humidity:  60, Illumination:  9.00
2026-09-04 18:55:06: Inside: 82.4, Outside: 80.8, Pressure: 29.855, Humidity:  59, Illumination: 12.00
2026-09-04 18:50:05: Inside: 82.5, Outside: 81.3, Pressure: 29.856, Humidity:  58, Illumination: 13.00
2026-09-04 18:45:06: Inside: 82.5, Outside: 81.5, Pressure: 29.860, Humidity:  57, Illumination: 14.00
2026-09-04 18:40:05: Inside: 82.5, Outside: 81.8, Pressure: 29.860, Humidity:  57, Illumination: 16.00
2026-09-04 18:35:05: Inside: 82.6, Outside: 82.0, Pressure: 29.861, Humidity:  57, Illumination: 18.00
2026-09-04 18:30:05: Inside: 82.6, Outside: 82.1, Pressure: 29.860, Humidity:  57, Illumination: 21.00
2026-09-04 18:25:05: Inside: 82.6, Outside: 82.3, Pressure: 29.858, Humidity:  56, Illumination: 24.00
2026-09-04 18:20:05: Inside: 82.7, Outside: 82.4, Pressure: 29.854, Humidity:  57, Illumination: 24.00
2026-09-04 18:15:05: Inside: 82.7, Outside: 82.5, Pressure: 29.854, Humidity:  57, Illumination: 30.00
2026-09-04 18:10:05: Inside: 82.7, Outside: 82.8, Pressure: 29.854, Humidity:  56, Illumination: 31.00
2026-09-04 18:05:06: Inside: 82.7, Outside: 83.2, Pressure: 29.856, Humidity:  58, Illumination: 27.00
2026-09-04 18:00:05: Inside: 82.7, Outside: 83.4, Pressure: 29.856, Humidity:  57, Illumination: 27.00
2026-09-04 17:55:05: Inside: 82.8, Outside: 83.5, Pressure: 29.856, Humidity:  57, Illumination: 28.00
2026-09-04 17:50:05: Inside: 82.8, Outside: 83.9, Pressure: 29.853, Humidity:  57, Illumination: 29.00
2026-09-04 17:45:05: Inside: 82.8, Outside: 84.0, Pressure: 29.850, Humidity:  57, Illumination: 28.00
2026-09-04 17:40:05: Inside: 82.8, Outside: 84.0, Pressure: 29.850, Humidity:  57, Illumination: 29.00
2026-09-04 17:35:05: Inside: 82.8, Outside: 84.1, Pressure: 29.848, Humidity:  57, Illumination: 29.00
2026-09-04 17:30:05: Inside: 83.0, Outside: 84.1, Pressure: 29.849, Humidity:  57, Illumination: 30.00
2026-09-04 17:25:05: Inside: 83.0, Outside: 84.3, Pressure: 29.849, Humidity:  57, Illumination: 30.00
2026-09-04 17:20:05: Inside: 83.0, Outside: 84.4, Pressure: 29.846, Humidity:  57, Illumination: 30.00
2026-09-04 17:15:05: Inside: 83.0, Outside: 84.4, Pressure: 29.846, Humidity:  58, Illumination: 30.00
2026-09-04 17:10:05: Inside: 83.0, Outside: 84.7, Pressure: 29.848, Humidity:  58, Illumination: 30.00
2026-09-04 17:05:06: Inside: 83.0, Outside: 85.0, Pressure: 29.849, Humidity:  58, Illumination: 30.00
2026-09-04 17:00:06: Inside: 83.0, Outside: 85.1, Pressure: 29.850, Humidity:  58, Illumination: 32.00
2026-09-04 16:55:05: Inside: 83.0, Outside: 85.1, Pressure: 29.849, Humidity:  58, Illumination: 32.00
2026-09-04 16:50:05: Inside: 83.0, Outside: 85.1, Pressure: 29.850, Humidity:  58, Illumination: 31.00
2026-09-04 16:45:05: Inside: 83.0, Outside: 84.8, Pressure: 29.851, Humidity:  58, Illumination: 32.00
2026-09-04 16:40:05: Inside: 83.0, Outside: 84.9, Pressure: 29.853, Humidity:  59, Illumination: 32.00
2026-09-04 16:35:05: Inside: 83.0, Outside: 85.3, Pressure: 29.852, Humidity:  59, Illumination: 32.00
2026-09-04 16:30:05: Inside: 83.0, Outside: 85.1, Pressure: 29.853, Humidity:  59, Illumination: 32.00
2026-09-04 16:25:05: Inside: 83.0, Outside: 85.2, Pressure: 29.852, Humidity:  59, Illumination: 32.00

Gas Readings Database

gas table size: 258142 rows

Last 50 gas reading changes:
2026-09-04 19:31:21: Reading: 111054
2026-09-04 19:30:51: Reading: 111052,   ΔT:   0 min,   ΔR:  2 cf
2026-09-04 19:28:20: Reading: 111050,   ΔT:   2 min,   ΔR:  2 cf
2026-09-04 17:50:51: Reading: 111048,   ΔT:  97 min,   ΔR:  2 cf
2026-09-04 17:17:36: Reading: 111044,   ΔT:  33 min,   ΔR:  4 cf
2026-09-04 15:38:36: Reading: 111042,   ΔT:  99 min,   ΔR:  2 cf
2026-09-04 15:37:36: Reading: 111040,   ΔT:   1 min,   ΔR:  2 cf
2026-09-04 15:35:21: Reading: 111038,   ΔT:   2 min,   ΔR:  2 cf
2026-09-04 12:48:20: Reading: 111036,   ΔT: 167 min,   ΔR:  2 cf
2026-09-04 12:47:21: Reading: 111034,   ΔT:   0 min,   ΔR:  2 cf
2026-09-04 12:46:35: Reading: 111032,   ΔT:   0 min,   ΔR:  2 cf
2026-09-04 11:52:35: Reading: 111030,   ΔT:  54 min,   ΔR:  2 cf
2026-09-04 11:49:05: Reading: 111028,   ΔT:   3 min,   ΔR:  2 cf
2026-09-04 09:51:35: Reading: 111026,   ΔT: 117 min,   ΔR:  2 cf
2026-09-04 09:48:36: Reading: 111024,   ΔT:   2 min,   ΔR:  2 cf
2026-09-04 09:26:36: Reading: 111022,   ΔT:  22 min,   ΔR:  2 cf
2026-09-04 08:11:36: Reading: 111020,   ΔT:  75 min,   ΔR:  2 cf
2026-09-04 08:08:36: Reading: 111018,   ΔT:   3 min,   ΔR:  2 cf
2026-09-04 06:25:22: Reading: 111016,   ΔT: 103 min,   ΔR:  2 cf
2026-09-04 06:23:51: Reading: 111014,   ΔT:   1 min,   ΔR:  2 cf
2026-09-04 05:29:06: Reading: 111012,   ΔT:  54 min,   ΔR:  2 cf
2026-09-04 04:28:21: Reading: 111010,   ΔT:  60 min,   ΔR:  2 cf
2026-09-04 04:26:36: Reading: 111008,   ΔT:   1 min,   ΔR:  2 cf
2026-09-04 02:17:36: Reading: 111006,   ΔT: 129 min,   ΔR:  2 cf
2026-09-04 02:15:22: Reading: 111004,   ΔT:   2 min,   ΔR:  2 cf
2026-09-04 02:13:21: Reading: 111002,   ΔT:   2 min,   ΔR:  2 cf
2026-09-04 00:18:52: Reading: 111000,   ΔT: 114 min,   ΔR:  2 cf
2026-09-04 00:18:22: Reading: 110998,   ΔT:   0 min,   ΔR:  2 cf
2026-09-04 00:16:36: Reading: 110996,   ΔT:   1 min,   ΔR:  2 cf
2026-09-03 21:38:52: Reading: 110994,   ΔT: 157 min,   ΔR:  2 cf
2026-09-03 21:38:22: Reading: 110992,   ΔT:   0 min,   ΔR:  2 cf
2026-09-03 21:35:51: Reading: 110988,   ΔT:   2 min,   ΔR:  4 cf
2026-09-03 19:29:07: Reading: 110986,   ΔT: 126 min,   ΔR:  2 cf
2026-09-03 19:16:36: Reading: 110984,   ΔT:  12 min,   ΔR:  2 cf
2026-09-03 19:13:36: Reading: 110978,   ΔT:   3 min,   ΔR:  6 cf
2026-09-03 19:12:36: Reading: 110976,   ΔT:   1 min,   ΔR:  2 cf
2026-09-03 16:55:07: Reading: 110974,   ΔT: 137 min,   ΔR:  2 cf
2026-09-03 16:52:52: Reading: 110972,   ΔT:   2 min,   ΔR:  2 cf
2026-09-03 16:51:38: Reading: 110970,   ΔT:   1 min,   ΔR:  2 cf
2026-09-03 15:35:53: Reading: 110968,   ΔT:  75 min,   ΔR:  2 cf
2026-09-03 14:12:38: Reading: 110966,   ΔT:  83 min,   ΔR:  2 cf
2026-09-03 14:10:23: Reading: 110962,   ΔT:   2 min,   ΔR:  4 cf
2026-09-03 14:08:22: Reading: 110960,   ΔT:   2 min,   ΔR:  2 cf
2026-09-03 14:00:07: Reading: 110958,   ΔT:   8 min,   ΔR:  2 cf
2026-09-03 13:51:38: Reading: 110956,   ΔT:   8 min,   ΔR:  2 cf
2026-09-03 13:02:23: Reading: 110954,   ΔT:  49 min,   ΔR:  2 cf
2026-09-03 12:41:52: Reading: 110952,   ΔT:  20 min,   ΔR:  2 cf
2026-09-03 12:36:38: Reading: 110950,   ΔT:   5 min,   ΔR:  2 cf
2026-09-03 12:33:37: Reading: 110948,   ΔT:   3 min,   ΔR:  2 cf
2026-09-03 12:32:37: Reading: 110946,   ΔT:   1 min,   ΔR:  2 cf